Aplicació Alertes

Dades de l'estació automàtica Vilanova de Segrià

?
?
Resum diari 22:30 TU
Dades diàries de l'estació meteorològica
Temperatura mitjana 1.2 °C
Temperatura màxima 9.4 °C 15:35 TU
Temperatura mínima -5.8 °C 7:06 TU
Humitat relativa mitjana 79%
Precipitació acumulada 0.0 mm
Ratxa màxima del vent (2 m) 16.6 km/h - 325º 13:58 TU
Irradiació solar global 8.7 MJ/m2

El tram horari està expressat en Temps Universal (TU). Cal sumar una hora en horari d'hivern i dues en horari d'estiu per passar a l'hora oficial.

Vilanova de Segrià

Metadades estació meteorol´gica
Municipi Vilanova de Segrià
Comarca Segrià
Altitud 222 m
Data alta 17.09.1997
Estat actual Operativa
Dades de període
Període
TU
TM
°C
TX
°C
TN
°C
HRM
%
PPT
mm
VVM (2 m)
km/h
DVM (2 m)
graus
VVX (2 m)
km/h
RS
W/m2
00:00 - 00:30 -1.5 -1.1 -1.8 93 0.0 2.2 296 5.0 0
00:30 - 01:00 -1.2 -0.6 -1.7 92 0.0 0.7 343 4.7 0
01:00 - 01:30 -1.2 -0.9 -1.6 93 0.0 1.4 314 4.3 0
01:30 - 02:00 -0.9 -0.7 -1.1 92 0.0 1.4 186 5.8 0
02:00 - 02:30 -1.5 -1.0 -1.9 92 0.0 1.4 131 5.8 0
02:30 - 03:00 -1.6 -1.4 -2.2 94 0.0 1.1 261 4.7 0
03:00 - 03:30 -2.3 -1.2 -3.2 94 0.0 1.4 127 6.8 0
03:30 - 04:00 -3.2 -2.9 -3.5 96 0.0 1.4 294 4.7 0
04:00 - 04:30 -3.1 -2.7 -3.8 96 0.0 1.4 326 9.7 0
04:30 - 05:00 -3.6 -2.7 -4.3 96 0.0 1.4 287 4.0 0
05:00 - 05:30 -3.7 -2.6 -4.6 94 0.0 0.4 324 2.9 0
05:30 - 06:00 -4.8 -4.2 -5.3 95 0.0 1.1 348 3.6 0
06:00 - 06:30 -5.0 -4.8 -5.5 95 0.0 1.4 291 4.3 0
06:30 - 07:00 -5.0 -4.7 -5.3 96 0.0 0.7 285 2.9 0
07:00 - 07:30 -5.0 -4.1 -5.8 96 0.0 1.8 316 5.0 4
07:30 - 08:00 -4.6 -4.3 -5.0 95 0.0 1.4 350 3.2 19
08:00 - 08:30 -3.6 -2.6 -4.3 95 0.0 1.4 323 5.4 78
08:30 - 09:00 -1.2 -0.3 -2.4 91 0.0 2.2 315 7.2 176
09:00 - 09:30 1.1 2.1 -0.2 85 0.0 1.8 335 7.2 232
09:30 - 10:00 2.4 3.1 1.9 78 0.0 2.5 323 7.9 288
10:00 - 10:30 4.0 4.9 3.1 71 0.0 2.2 308 7.9 348
10:30 - 11:00 4.9 5.4 4.6 67 0.0 6.5 303 11.9 386
11:00 - 11:30 5.9 6.4 5.4 60 0.0 6.1 270 12.6 417
11:30 - 12:00 6.7 7.0 6.4 55 0.0 5.8 288 13.7 435
12:00 - 12:30 7.6 8.1 7.1 50 0.0 7.2 255 13.7 438
12:30 - 13:00 8.4 8.8 8.0 45 0.0 5.0 248 10.8 423
13:00 - 13:30 8.7 9.1 8.5 42 0.0 6.1 274 13.7 400
13:30 - 14:00 8.8 9.0 8.6 47 0.0 10.1 305 16.6 360
14:00 - 14:30 8.9 9.2 8.6 50 0.0 9.0 303 16.2 296
14:30 - 15:00 8.6 9.0 8.1 50 0.0 6.8 308 13.0 229
15:00 - 15:30 8.5 9.0 8.3 51 0.0 3.6 318 8.6 174
15:30 - 16:00 9.0 9.4 8.3 49 0.0 0.4 329 4.0 99
16:00 - 16:30 6.4 9.1 3.6 56 0.0 0.0 0 0.0 18
16:30 - 17:00 2.8 3.5 2.3 71 0.0 0.4 349 2.9 2
17:00 - 17:30 1.4 2.3 0.7 77 0.0 0.7 322 3.2 0
17:30 - 18:00 1.8 2.4 1.1 76 0.0 1.8 301 4.0 0
18:00 - 18:30 1.0 1.6 -0.4 78 0.0 1.8 335 4.7 0
18:30 - 19:00 -0.7 -0.2 -1.2 84 0.0 0.7 312 4.0 0
19:00 - 19:30 -0.4 0.2 -0.9 85 0.0 0.7 293 2.9 0
19:30 - 20:00 -0.7 0.0 -1.2 85 0.0 1.1 82 10.8 0
20:00 - 20:30 -0.1 1.5 -0.9 84 0.0 2.9 304 6.8 0
20:30 - 21:00 0.8 1.6 -0.4 80 0.0 0.7 292 4.0 0
21:00 - 21:30 0.1 0.4 -0.3 85 0.0 1.4 261 4.0 0
21:30 - 22:00 0.0 0.6 -0.4 86 0.0 1.1 326 3.6 0
22:00 - 22:30 0.4 1.2 -0.3 84 0.0 1.1 299 4.3 0
22:30 - 23:00 0.2 0.8 -0.2 86 0.0 2.2 321 6.5 0

Les dades en taronja només han passat un control de qualitat automàtic. Resta pendent la seva validació definitiva.